createdAt,value
2019-05-30T00:00:18.196Z,95.3
2019-05-30T00:01:16.487Z,95.3
2019-05-30T00:02:16.761Z,95.3
2019-05-30T00:03:17.025Z,95.5
2019-05-30T00:04:16.308Z,95.5
2019-05-30T00:05:16.588Z,95.5
2019-05-30T00:06:16.850Z,95.4
2019-05-30T00:07:17.123Z,95.3
2019-05-30T00:08:16.389Z,95.4
2019-05-30T00:09:16.645Z,95.5
2019-05-30T00:10:16.907Z,95.5
2019-05-30T00:11:16.993Z,95.5
2019-05-30T00:12:16.265Z,95.4
2019-05-30T00:13:16.533Z,95.3
2019-05-30T00:14:16.808Z,95.5
2019-05-30T00:15:17.095Z,95.5
2019-05-30T00:16:16.363Z,95.7
2019-05-30T00:17:16.631Z,95.7
2019-05-30T00:18:16.894Z,95.7
2019-05-30T00:19:17.158Z,95.8
2019-05-30T00:20:16.447Z,95.5
2019-05-30T00:21:16.485Z,95.6
2019-05-30T00:22:16.743Z,95.5
2019-05-30T00:23:17.012Z,95.6
2019-05-30T00:24:16.281Z,95.5
2019-05-30T00:25:16.563Z,95.5
2019-05-30T00:26:16.833Z,95.5
2019-05-30T00:27:17.099Z,95.5
2019-05-30T00:28:16.363Z,95.5
2019-05-30T00:29:16.639Z,95.5
2019-05-30T00:30:24.996Z,95.4
2019-05-30T00:31:16.966Z,95.6
2019-05-30T00:32:17.241Z,95.6
2019-05-30T00:33:16.531Z,95.7
2019-05-30T00:34:16.807Z,95.7
2019-05-30T00:35:17.076Z,95.7
2019-05-30T00:36:16.363Z,95.8
2019-05-30T00:37:16.642Z,95.8
2019-05-30T00:38:16.901Z,95.5
2019-05-30T00:39:17.172Z,95.5
2019-05-30T00:40:16.458Z,95.5
2019-05-30T00:41:16.501Z,95.3
2019-05-30T00:42:16.761Z,95.3
2019-05-30T00:43:17.027Z,95.2
2019-05-30T00:44:16.286Z,95.2
2019-05-30T00:45:21.460Z,95.2
2019-05-30T00:46:16.822Z,95.2
2019-05-30T00:47:17.095Z,95.2
2019-05-30T00:48:16.364Z,95.2
2019-05-30T00:49:16.632Z,95.2
2019-05-30T00:50:16.916Z,95.1
2019-05-30T00:51:16.968Z,95.2
2019-05-30T00:52:17.232Z,95.2
2019-05-30T00:53:16.497Z,95.2
2019-05-30T00:54:16.819Z,95.3
2019-05-30T00:55:17.148Z,95.5
2019-05-30T00:56:16.427Z,95.5
2019-05-30T00:57:16.702Z,95.6
2019-05-30T00:58:16.977Z,95.7
2019-05-30T00:59:17.231Z,95.7
2019-05-30T01:00:16.526Z,95.8
2019-05-30T01:01:16.560Z,95.7
2019-05-30T01:02:16.828Z,95.7
2019-05-30T01:03:17.123Z,95.8
2019-05-30T01:04:16.412Z,95.9
2019-05-30T01:05:16.676Z,95.8
2019-05-30T01:06:16.944Z,95.8
2019-05-30T01:07:17.215Z,95.8
2019-05-30T01:08:16.481Z,95.9
2019-05-30T01:09:16.754Z,95.9
2019-05-30T01:10:17.029Z,95.9
2019-05-30T01:11:17.111Z,95.9
2019-05-30T01:12:16.380Z,95.9
2019-05-30T01:13:16.645Z,96.0
2019-05-30T01:14:16.905Z,96.0
2019-05-30T01:15:17.176Z,96.0
2019-05-30T01:16:16.434Z,96.2
2019-05-30T01:17:16.689Z,96.0
2019-05-30T01:18:16.959Z,96.0
2019-05-30T01:19:17.225Z,95.8
2019-05-30T01:20:16.514Z,95.8
2019-05-30T01:21:16.571Z,95.8
2019-05-30T01:22:16.838Z,95.8
2019-05-30T01:23:17.092Z,95.8
2019-05-30T01:24:16.356Z,95.8
2019-05-30T01:25:16.643Z,95.8
2019-05-30T01:26:16.913Z,95.7
2019-05-30T01:27:17.164Z,95.7
2019-05-30T01:28:16.437Z,95.8
2019-05-30T01:29:16.711Z,95.8
2019-05-30T01:30:16.994Z,95.9
2019-05-30T01:31:17.029Z,96.0
2019-05-30T01:32:16.289Z,95.6
2019-05-30T01:33:16.558Z,95.6
2019-05-30T01:34:16.832Z,95.6
2019-05-30T01:35:17.128Z,95.5
2019-05-30T01:36:16.401Z,95.5
2019-05-30T01:37:16.677Z,95.5
2019-05-30T01:38:16.942Z,95.5
2019-05-30T01:39:17.207Z,95.4
2019-05-30T01:40:16.492Z,95.1
2019-05-30T01:41:17.922Z,95.2
2019-05-30T01:42:17.225Z,95.1
2019-05-30T01:43:16.485Z,95.2
2019-05-30T01:44:16.761Z,95.2
2019-05-30T01:45:17.055Z,95.2
2019-05-30T01:46:16.319Z,95.4
2019-05-30T01:47:16.594Z,95.5
2019-05-30T01:48:16.871Z,95.5
2019-05-30T01:49:17.135Z,95.5
2019-05-30T01:50:16.403Z,95.5
2019-05-30T01:51:16.462Z,95.5
2019-05-30T01:52:16.732Z,95.7
2019-05-30T01:53:16.989Z,95.7
2019-05-30T01:54:16.248Z,95.7
2019-05-30T01:55:16.511Z,95.6
2019-05-30T01:56:16.787Z,95.6
2019-05-30T01:57:17.054Z,95.4
2019-05-30T01:58:16.319Z,95.4
2019-05-30T01:59:16.588Z,95.4
2019-05-30T02:00:21.677Z,95.4
2019-05-30T02:01:25.484Z,95.2
2019-05-30T02:02:17.023Z,95.2
2019-05-30T02:03:16.296Z,95.2
2019-05-30T02:04:16.565Z,95.3
2019-05-30T02:05:16.850Z,95.3
2019-05-30T02:06:17.130Z,95.5
2019-05-30T02:07:16.395Z,95.5
2019-05-30T02:08:16.508Z,95.6
2019-05-30T02:09:16.800Z,95.7
2019-05-30T02:10:17.160Z,95.9
2019-05-30T02:11:17.143Z,95.9
2019-05-30T02:12:16.408Z,96.1
2019-05-30T02:13:16.676Z,96.2
2019-05-30T02:14:16.952Z,96.1
2019-05-30T02:15:17.238Z,96.2
2019-05-30T02:16:16.535Z,96.2
2019-05-30T02:17:16.824Z,96.0
2019-05-30T02:18:17.095Z,96.0
2019-05-30T02:19:16.360Z,96.0
2019-05-30T02:20:16.646Z,96.2
2019-05-30T02:21:16.698Z,96.2
2019-05-30T02:22:16.974Z,96.2
2019-05-30T02:23:17.234Z,96.2
2019-05-30T02:24:16.621Z,96.2
2019-05-30T02:25:16.896Z,96.2
2019-05-30T02:26:17.170Z,96.3
2019-05-30T02:27:16.438Z,96.1
2019-05-30T02:28:16.702Z,96.0
2019-05-30T02:29:16.981Z,96.0
2019-05-30T02:30:17.261Z,96.0
2019-05-30T02:31:16.324Z,96.0
2019-05-30T02:32:16.596Z,96.0
2019-05-30T02:33:16.870Z,96.0
2019-05-30T02:34:17.139Z,95.9
2019-05-30T02:35:16.413Z,95.8
2019-05-30T02:36:16.682Z,95.5
2019-05-30T02:37:16.961Z,95.5
2019-05-30T02:38:17.238Z,95.7
2019-05-30T02:39:16.522Z,95.6
2019-05-30T02:40:16.846Z,95.7
2019-05-30T02:41:16.854Z,95.8
2019-05-30T02:42:17.162Z,95.9
2019-05-30T02:43:16.442Z,95.7
2019-05-30T02:44:16.721Z,95.8
2019-05-30T02:45:16.989Z,95.8
2019-05-30T02:46:17.267Z,95.9
2019-05-30T02:47:16.545Z,96.0
2019-05-30T02:48:16.826Z,96.0
2019-05-30T02:49:17.097Z,96.0
2019-05-30T02:50:16.376Z,96.2
2019-05-30T02:51:16.443Z,96.2
2019-05-30T02:52:16.705Z,96.4
2019-05-30T02:53:16.988Z,96.3
2019-05-30T02:54:16.275Z,96.4
2019-05-30T02:55:16.543Z,96.3
2019-05-30T02:56:16.809Z,96.5
2019-05-30T02:57:17.074Z,96.6
2019-05-30T02:58:16.353Z,96.6
2019-05-30T02:59:16.631Z,96.6
2019-05-30T03:00:18.359Z,96.8
2019-05-30T03:01:16.973Z,96.7
2019-05-30T03:02:18.054Z,96.7
2019-05-30T03:03:16.379Z,96.8
2019-05-30T03:04:16.677Z,96.8
2019-05-30T03:05:16.989Z,96.8
2019-05-30T03:06:16.277Z,96.7
2019-05-30T03:07:16.592Z,96.7
2019-05-30T03:08:16.875Z,96.8
2019-05-30T03:09:17.166Z,96.8
2019-05-30T03:10:16.456Z,96.8
2019-05-30T03:11:16.506Z,96.7
2019-05-30T03:12:16.787Z,96.5
2019-05-30T03:13:17.064Z,96.7
2019-05-30T03:14:20.120Z,96.7
2019-05-30T03:15:16.552Z,96.7
2019-05-30T03:16:16.831Z,96.5
2019-05-30T03:17:17.116Z,96.5
2019-05-30T03:18:16.389Z,96.5
2019-05-30T03:19:16.662Z,96.5
2019-05-30T03:20:23.647Z,96.3
2019-05-30T03:21:17.004Z,96.3
2019-05-30T03:22:16.291Z,96.2
2019-05-30T03:23:16.593Z,96.2
2019-05-30T03:24:16.862Z,96.2
2019-05-30T03:25:17.156Z,96.3
2019-05-30T03:26:16.707Z,96.3
2019-05-30T03:27:16.979Z,96.2
2019-05-30T03:28:17.258Z,96.2
2019-05-30T03:29:16.541Z,96.1
2019-05-30T03:30:29.189Z,96.0
2019-05-30T03:31:29.502Z,96.0
2019-05-30T03:33:01.534Z,96.0
2019-05-30T03:33:38.655Z,96.0
2019-05-30T03:34:28.107Z,96.0
2019-05-30T03:35:30.553Z,96.0
2019-05-30T03:36:31.647Z,96.0
2019-05-30T03:37:30.129Z,96.0
2019-05-30T03:38:16.747Z,96.0
2019-05-30T03:39:17.056Z,96.2
2019-05-30T03:40:20.279Z,96.5
2019-05-30T03:41:16.397Z,96.5
2019-05-30T03:42:16.696Z,96.5
2019-05-30T03:43:16.962Z,96.3
2019-05-30T03:44:17.257Z,96.4
2019-05-30T03:45:16.836Z,96.5
2019-05-30T03:46:17.100Z,96.5
2019-05-30T03:47:16.366Z,96.5
2019-05-30T03:48:16.727Z,96.5
2019-05-30T03:49:17.004Z,96.3
2019-05-30T03:50:17.994Z,96.2
2019-05-30T03:51:16.374Z,96.3
2019-05-30T03:52:17.527Z,96.3
2019-05-30T03:53:16.901Z,96.1
2019-05-30T03:54:17.186Z,96.0
2019-05-30T03:55:16.906Z,95.8
2019-05-30T03:56:17.176Z,95.8
2019-05-30T03:57:16.484Z,95.7
2019-05-30T03:58:20.827Z,95.8
2019-05-30T03:59:18.161Z,95.7
2019-05-30T04:00:18.468Z,95.5
2019-05-30T04:01:16.539Z,95.4
2019-05-30T04:02:19.123Z,95.4
2019-05-30T04:03:16.471Z,95.5
2019-05-30T04:04:19.014Z,95.5
2019-05-30T04:05:16.404Z,95.5
2019-05-30T04:06:16.788Z,95.3
2019-05-30T04:07:17.107Z,95.1
2019-05-30T04:08:16.455Z,95.2
2019-05-30T04:09:25.019Z,95.3
2019-05-30T04:10:16.584Z,95.3
2019-05-30T04:11:17.048Z,95.4
2019-05-30T04:12:16.988Z,95.1
2019-05-30T04:13:19.414Z,95.0
2019-05-30T04:14:16.795Z,95.0
2019-05-30T04:15:18.931Z,94.8
2019-05-30T04:16:17.239Z,94.8
2019-05-30T04:17:19.910Z,94.5
2019-05-30T04:18:16.794Z,94.5
2019-05-30T04:19:19.959Z,94.3
2019-05-30T04:20:23.090Z,94.2
2019-05-30T04:21:21.594Z,94.2
2019-05-30T04:22:17.007Z,94.1
2019-05-30T04:23:19.210Z,94.0
2019-05-30T04:24:16.813Z,93.9
2019-05-30T04:25:18.766Z,93.8
2019-05-30T04:26:18.395Z,94.0
2019-05-30T04:27:18.816Z,93.9
2019-05-30T04:28:18.883Z,94.0
2019-05-30T04:29:18.885Z,93.8
2019-05-30T04:30:18.066Z,93.6
2019-05-30T04:31:19.148Z,93.5
2019-05-30T04:32:18.206Z,93.0
2019-05-30T04:33:32.880Z,93.0
2019-05-30T04:34:19.521Z,93.0
2019-05-30T04:35:19.046Z,93.2
2019-05-30T04:36:19.031Z,93.1
2019-05-30T04:37:18.986Z,93.2
2019-05-30T04:38:18.918Z,93.3
2019-05-30T04:39:18.708Z,93.2
2019-05-30T04:40:19.664Z,93.0
2019-05-30T04:41:20.883Z,92.9
2019-05-30T04:42:20.851Z,92.7
2019-05-30T04:43:20.179Z,92.7
2019-05-30T04:44:19.798Z,92.6
2019-05-30T04:45:18.655Z,92.8
2019-05-30T04:46:21.612Z,92.9
2019-05-30T04:47:20.206Z,93.0
2019-05-30T04:48:21.104Z,92.9
2019-05-30T04:49:19.183Z,92.5
2019-05-30T04:50:18.577Z,92.2
2019-05-30T04:51:18.526Z,92.0
2019-05-30T04:52:24.406Z,92.1
2019-05-30T04:53:18.909Z,92.2
2019-05-30T04:54:19.079Z,92.0
2019-05-30T04:55:22.387Z,92.0
2019-05-30T04:56:19.862Z,91.6
2019-05-30T04:57:18.675Z,91.2
2019-05-30T04:58:20.965Z,91.5
2019-05-30T04:59:20.267Z,90.9
2019-05-30T05:00:17.228Z,90.7
2019-05-30T05:01:19.492Z,90.7
2019-05-30T05:02:21.175Z,90.6
2019-05-30T05:03:43.870Z,90.6
2019-05-30T05:04:19.413Z,90.5
2019-05-30T05:05:26.650Z,90.7
2019-05-30T05:06:19.401Z,91.0
2019-05-30T05:07:18.016Z,90.4
2019-05-30T05:08:18.043Z,90.0
2019-05-30T05:09:18.329Z,89.9
2019-05-30T05:10:18.376Z,89.8
2019-05-30T05:11:22.646Z,89.5
2019-05-30T05:12:18.292Z,89.3
2019-05-30T05:13:16.572Z,88.8
2019-05-30T05:14:18.338Z,88.8
2019-05-30T05:15:16.752Z,88.5
2019-05-30T05:16:35.223Z,88.2
2019-05-30T05:17:18.482Z,88.1
2019-05-30T05:18:17.180Z,88.6
2019-05-30T05:19:17.304Z,88.2
2019-05-30T05:20:17.396Z,88.0
2019-05-30T05:21:16.981Z,87.5
2019-05-30T05:22:17.245Z,87.4
2019-05-30T05:23:17.390Z,87.3
2019-05-30T05:24:17.432Z,86.6
2019-05-30T05:25:17.545Z,86.5
2019-05-30T05:26:17.529Z,86.7
2019-05-30T05:27:17.758Z,86.9
2019-05-30T05:28:17.817Z,87.2
2019-05-30T05:29:18.053Z,86.5
2019-05-30T05:30:16.341Z,86.3
2019-05-30T05:31:16.711Z,86.2
2019-05-30T05:32:18.275Z,86.0
2019-05-30T05:33:16.835Z,86.3
2019-05-30T05:34:17.108Z,85.8
2019-05-30T05:35:16.825Z,85.5
2019-05-30T05:36:17.134Z,85.6
2019-05-30T05:37:17.134Z,86.2
2019-05-30T05:38:16.408Z,87.2
2019-05-30T05:39:17.819Z,86.1
2019-05-30T05:40:16.342Z,86.0
2019-05-30T05:41:16.416Z,85.5
2019-05-30T05:42:16.681Z,86.5
2019-05-30T05:43:18.785Z,86.8
2019-05-30T05:44:18.368Z,85.8
2019-05-30T05:45:16.652Z,85.7
2019-05-30T05:46:16.916Z,85.6
2019-05-30T05:47:18.560Z,85.5
2019-05-30T05:48:16.831Z,84.9
2019-05-30T05:49:18.455Z,84.6
2019-05-30T05:50:16.952Z,84.7
2019-05-30T05:51:16.791Z,84.7
2019-05-30T05:52:17.111Z,84.1
2019-05-30T05:53:16.745Z,83.7
2019-05-30T05:54:17.036Z,83.2
2019-05-30T05:55:16.791Z,83.1
2019-05-30T05:56:17.068Z,83.2
2019-05-30T05:57:16.843Z,84.7
2019-05-30T05:58:17.163Z,84.2
2019-05-30T05:59:17.150Z,84.2
2019-05-30T06:00:16.997Z,83.8
2019-05-30T06:01:17.497Z,83.3
2019-05-30T06:02:19.245Z,82.5
2019-05-30T06:03:18.891Z,82.7
2019-05-30T06:04:17.294Z,83.0
2019-05-30T06:05:16.565Z,83.5
2019-05-30T06:06:17.353Z,81.7
2019-05-30T06:07:16.636Z,80.5
2019-05-30T06:08:17.517Z,80.9
2019-05-30T06:09:16.780Z,80.5
2019-05-30T06:10:17.666Z,80.7
2019-05-30T06:11:17.121Z,80.8
2019-05-30T06:12:17.716Z,81.8
2019-05-30T06:13:16.981Z,81.2
2019-05-30T06:14:17.922Z,80.1
2019-05-30T06:15:17.213Z,79.9
2019-05-30T06:16:17.889Z,79.3
2019-05-30T06:17:17.183Z,78.3
2019-05-30T06:18:16.450Z,77.9
2019-05-30T06:19:17.288Z,77.8
2019-05-30T06:20:17.577Z,77.1
2019-05-30T06:21:17.374Z,76.5
2019-05-30T06:22:17.555Z,75.7
2019-05-30T06:23:17.426Z,76.8
2019-05-30T06:24:17.792Z,77.3
2019-05-30T06:25:21.743Z,75.8
2019-05-30T06:26:17.847Z,75.2
2019-05-30T06:27:17.902Z,75.8
2019-05-30T06:28:18.140Z,74.7
2019-05-30T06:29:16.401Z,74.6
2019-05-30T06:30:16.677Z,74.6
2019-05-30T06:31:16.726Z,72.7
2019-05-30T06:32:16.990Z,72.9
2019-05-30T06:33:16.253Z,72.2
2019-05-30T06:34:36.389Z,71.5
2019-05-30T06:35:16.727Z,72.2
2019-05-30T06:36:16.988Z,69.8
2019-05-30T06:37:17.249Z,68.5
2019-05-30T06:38:16.518Z,68.7
2019-05-30T06:39:16.794Z,67.2
2019-05-30T06:40:17.069Z,66.7
2019-05-30T06:41:17.122Z,66.8
2019-05-30T06:42:16.395Z,66.2
2019-05-30T06:43:16.661Z,66.4
2019-05-30T06:44:16.922Z,68.5
2019-05-30T06:45:17.187Z,67.6
2019-05-30T06:46:16.449Z,67.5
2019-05-30T06:47:16.721Z,66.8
2019-05-30T06:48:16.989Z,67.0
2019-05-30T06:49:16.263Z,67.6
2019-05-30T06:50:16.573Z,68.3
2019-05-30T06:51:16.647Z,69.3
2019-05-30T06:52:16.966Z,66.9
2019-05-30T06:53:16.260Z,66.5
2019-05-30T06:54:16.543Z,65.4
2019-05-30T06:55:16.897Z,63.5
2019-05-30T06:56:17.175Z,64.0
2019-05-30T06:57:16.457Z,64.6
2019-05-30T06:58:16.731Z,64.1
2019-05-30T06:59:16.996Z,63.5
2019-05-30T07:00:16.274Z,64.0
2019-05-30T07:01:16.336Z,61.8
2019-05-30T07:02:16.693Z,63.3
2019-05-30T07:03:17.206Z,62.5
2019-05-30T07:04:17.666Z,61.9
2019-05-30T07:05:17.718Z,61.9
2019-05-30T07:06:17.122Z,62.0
2019-05-30T07:07:17.122Z,61.6
2019-05-30T07:08:16.583Z,63.0
2019-05-30T07:09:16.858Z,60.2
2019-05-30T07:10:17.166Z,60.8
2019-05-30T07:11:17.212Z,59.3
2019-05-30T07:12:16.475Z,59.4
2019-05-30T07:13:16.729Z,60.8
2019-05-30T07:14:16.997Z,59.7
2019-05-30T07:15:16.265Z,59.8
2019-05-30T07:16:16.533Z,59.2
2019-05-30T07:17:16.809Z,59.3
2019-05-30T07:18:17.085Z,59.4
2019-05-30T07:19:16.338Z,59.8
2019-05-30T07:20:16.616Z,59.8
2019-05-30T07:21:16.688Z,58.2
2019-05-30T07:22:16.958Z,61.2
2019-05-30T07:23:17.221Z,62.1
2019-05-30T07:24:16.492Z,62.1
2019-05-30T07:25:16.780Z,62.7
2019-05-30T07:26:17.035Z,62.6
2019-05-30T07:27:16.295Z,61.8
2019-05-30T07:28:16.554Z,60.9
2019-05-30T07:29:16.831Z,60.9
2019-05-30T07:30:17.146Z,58.6
2019-05-30T07:31:17.182Z,57.8
2019-05-30T07:32:16.464Z,58.6
2019-05-30T07:33:16.736Z,57.8
2019-05-30T07:34:17.006Z,58.4
2019-05-30T07:35:16.271Z,58.1
2019-05-30T07:36:16.536Z,57.9
2019-05-30T07:37:16.827Z,57.0
2019-05-30T07:38:17.099Z,57.2
2019-05-30T07:39:16.370Z,57.5
2019-05-30T07:40:19.994Z,57.1
2019-05-30T07:41:16.707Z,55.5
2019-05-30T07:42:16.972Z,56.5
2019-05-30T07:43:17.240Z,56.3
2019-05-30T07:44:16.500Z,54.2
2019-05-30T07:45:16.766Z,55.6
2019-05-30T07:46:17.027Z,57.3
2019-05-30T07:47:16.292Z,55.9
2019-05-30T07:48:16.568Z,55.3
2019-05-30T07:49:16.829Z,56.3
2019-05-30T07:50:17.104Z,56.8
2019-05-30T07:51:17.191Z,57.2
2019-05-30T07:52:16.454Z,56.0
2019-05-30T07:53:16.726Z,55.7
2019-05-30T07:54:16.997Z,55.4
2019-05-30T07:55:16.282Z,52.7
2019-05-30T07:56:16.546Z,53.6
2019-05-30T07:57:16.808Z,54.1
2019-05-30T07:58:17.099Z,54.0
2019-05-30T07:59:16.367Z,52.9
2019-05-30T08:00:16.652Z,54.8
2019-05-30T08:01:16.699Z,53.3
2019-05-30T08:02:16.966Z,53.0
2019-05-30T08:03:17.235Z,52.5
2019-05-30T08:04:16.583Z,52.8
2019-05-30T08:05:24.894Z,53.8
2019-05-30T08:06:16.355Z,53.9
2019-05-30T08:07:16.606Z,52.2
2019-05-30T08:08:16.878Z,50.1
2019-05-30T08:09:17.239Z,50.8
2019-05-30T08:10:16.543Z,54.1
2019-05-30T08:11:16.618Z,53.1
2019-05-30T08:12:16.886Z,51.5
2019-05-30T08:13:17.154Z,51.2
2019-05-30T08:14:16.442Z,51.6
2019-05-30T08:15:16.748Z,51.8
2019-05-30T08:16:17.020Z,53.0
2019-05-30T08:17:16.289Z,53.5
2019-05-30T08:18:16.562Z,53.1
2019-05-30T08:19:16.832Z,53.5
2019-05-30T08:20:17.132Z,53.4
2019-05-30T08:21:17.169Z,52.2
2019-05-30T08:22:16.449Z,52.2
2019-05-30T08:23:16.722Z,53.2
2019-05-30T08:24:16.976Z,52.3
2019-05-30T08:25:17.273Z,52.5
2019-05-30T08:26:18.544Z,51.2
2019-05-30T08:27:16.834Z,51.6
2019-05-30T08:28:17.103Z,52.0
2019-05-30T08:29:16.373Z,50.9
2019-05-30T08:30:16.668Z,50.5
2019-05-30T08:31:16.949Z,49.0
2019-05-30T08:32:17.207Z,48.4
2019-05-30T08:33:16.549Z,48.1
2019-05-30T08:34:16.830Z,48.2
2019-05-30T08:35:17.087Z,49.8
2019-05-30T08:36:16.375Z,49.4
2019-05-30T08:37:16.658Z,49.5
2019-05-30T08:38:16.925Z,48.5
2019-05-30T08:39:17.199Z,47.4
2019-05-30T08:40:16.480Z,47.8
2019-05-30T08:41:16.537Z,48.7
2019-05-30T08:42:16.824Z,48.4
2019-05-30T08:43:17.099Z,46.2
2019-05-30T08:44:16.366Z,45.5
2019-05-30T08:45:16.657Z,45.3
2019-05-30T08:46:16.929Z,44.5
2019-05-30T08:47:17.200Z,45.4
2019-05-30T08:48:16.537Z,46.5
2019-05-30T08:49:16.809Z,48.6
2019-05-30T08:50:17.083Z,47.1
2019-05-30T08:51:17.340Z,47.9
2019-05-30T08:52:16.615Z,47.0
2019-05-30T08:53:16.885Z,48.0
2019-05-30T08:54:17.155Z,50.6
2019-05-30T08:55:16.420Z,46.8
2019-05-30T08:56:16.697Z,45.2
2019-05-30T08:57:17.005Z,44.2
2019-05-30T08:58:16.289Z,42.8
2019-05-30T08:59:16.556Z,42.8
2019-05-30T09:00:16.831Z,42.2
2019-05-30T09:01:16.911Z,44.2
2019-05-30T09:02:17.206Z,42.8
2019-05-30T09:03:16.472Z,44.2
2019-05-30T09:04:16.740Z,44.2
2019-05-30T09:05:17.082Z,45.9
2019-05-30T09:06:16.747Z,44.8
2019-05-30T09:07:17.014Z,45.7
2019-05-30T09:08:16.272Z,46.4
2019-05-30T09:09:16.537Z,46.5
2019-05-30T09:10:16.833Z,47.2
2019-05-30T09:11:16.878Z,45.3
2019-05-30T09:12:17.140Z,44.9
2019-05-30T09:13:16.410Z,45.9
2019-05-30T09:14:16.685Z,46.0
2019-05-30T09:15:16.951Z,43.0
2019-05-30T09:16:17.237Z,43.0
2019-05-30T09:17:16.508Z,42.7
2019-05-30T09:18:16.792Z,44.2
2019-05-30T09:19:17.062Z,42.1
2019-05-30T09:20:16.333Z,43.5
2019-05-30T09:21:16.382Z,43.0
2019-05-30T09:22:16.643Z,41.5
2019-05-30T09:23:16.914Z,40.8
2019-05-30T09:24:17.234Z,41.6
2019-05-30T09:25:16.497Z,41.9
2019-05-30T09:26:16.771Z,43.0
2019-05-30T09:27:17.088Z,44.5
2019-05-30T09:28:16.425Z,44.5
2019-05-30T09:29:16.700Z,44.6
2019-05-30T09:30:16.990Z,43.5
2019-05-30T09:31:17.099Z,44.4
2019-05-30T09:32:16.373Z,44.5
2019-05-30T09:33:16.635Z,43.3
2019-05-30T09:34:16.895Z,42.2
2019-05-30T09:35:17.201Z,42.9
2019-05-30T09:36:16.471Z,42.9
2019-05-30T09:37:16.756Z,42.8
2019-05-30T09:38:17.022Z,43.9
2019-05-30T09:39:16.302Z,43.4
2019-05-30T09:40:16.580Z,44.2
2019-05-30T09:41:16.655Z,43.0
2019-05-30T09:42:16.919Z,44.1
2019-05-30T09:43:17.182Z,41.7
2019-05-30T09:44:16.484Z,40.3
2019-05-30T09:45:17.298Z,40.7
2019-05-30T09:46:16.720Z,43.8
2019-05-30T09:47:16.987Z,40.4
2019-05-30T09:48:17.254Z,42.5
2019-05-30T09:49:16.523Z,40.5
2019-05-30T09:50:16.807Z,40.2
2019-05-30T09:51:16.878Z,40.5
2019-05-30T09:52:17.161Z,41.3
2019-05-30T09:53:16.461Z,40.0
2019-05-30T09:54:16.733Z,40.5
2019-05-30T09:55:16.991Z,40.8
2019-05-30T09:56:16.267Z,41.7
2019-05-30T09:57:16.533Z,40.8
2019-05-30T09:58:16.819Z,42.0
2019-05-30T09:59:17.088Z,41.8
2019-05-30T10:00:16.369Z,42.1
2019-05-30T10:01:16.439Z,41.4
2019-05-30T10:02:16.713Z,40.5
2019-05-30T10:03:16.996Z,41.0
2019-05-30T10:04:16.262Z,43.2
2019-05-30T10:05:16.535Z,43.2
2019-05-30T10:06:30.068Z,40.7
2019-05-30T10:07:16.426Z,40.4
2019-05-30T10:08:16.707Z,40.2
2019-05-30T10:09:16.992Z,39.1
2019-05-30T10:10:16.276Z,40.9
2019-05-30T10:11:16.361Z,38.6
2019-05-30T10:12:16.624Z,37.9
2019-05-30T10:13:16.890Z,37.5
2019-05-30T10:14:17.164Z,36.6
2019-05-30T10:15:16.448Z,37.8
2019-05-30T10:16:16.726Z,37.6
2019-05-30T10:17:16.997Z,35.9
2019-05-30T10:18:16.277Z,37.1
2019-05-30T10:19:16.587Z,39.0
2019-05-30T10:20:16.893Z,40.0
2019-05-30T10:21:16.961Z,41.0
2019-05-30T10:22:17.252Z,40.5
2019-05-30T10:23:16.528Z,41.6
2019-05-30T10:24:16.793Z,43.1
2019-05-30T10:25:17.097Z,40.0
2019-05-30T10:26:16.377Z,38.9
2019-05-30T10:27:16.654Z,39.5
2019-05-30T10:28:16.924Z,39.0
2019-05-30T10:29:17.188Z,39.9
2019-05-30T10:30:16.462Z,38.6
2019-05-30T10:31:16.538Z,37.2
2019-05-30T10:32:16.803Z,39.1
2019-05-30T10:33:17.075Z,36.0
2019-05-30T10:34:16.340Z,36.2
2019-05-30T10:35:16.609Z,35.2
2019-05-30T10:36:20.306Z,34.9
2019-05-30T10:37:16.622Z,35.4
2019-05-30T10:38:20.287Z,35.5
2019-05-30T10:39:16.590Z,35.1
2019-05-30T10:40:16.864Z,35.0
2019-05-30T10:41:16.917Z,36.1
2019-05-30T10:42:17.199Z,36.6
2019-05-30T10:43:16.487Z,35.8
2019-05-30T10:44:16.753Z,34.8
2019-05-30T10:45:17.044Z,35.7
2019-05-30T10:46:16.330Z,32.6
2019-05-30T10:47:16.614Z,31.0
2019-05-30T10:48:21.109Z,30.0
2019-05-30T10:49:16.583Z,32.7
2019-05-30T10:50:16.853Z,32.4
2019-05-30T10:51:16.922Z,32.6
2019-05-30T10:52:17.192Z,34.1
2019-05-30T10:53:16.449Z,33.7
2019-05-30T10:54:16.727Z,32.4
2019-05-30T10:55:16.993Z,32.2
2019-05-30T10:56:16.257Z,32.3
2019-05-30T10:57:16.524Z,33.4
2019-05-30T10:58:16.875Z,34.6
2019-05-30T10:59:17.169Z,34.5
2019-05-30T11:00:16.457Z,33.9
2019-05-30T11:01:16.543Z,32.8
2019-05-30T11:02:16.811Z,34.1
2019-05-30T11:03:17.080Z,34.8
2019-05-30T11:04:16.356Z,35.1
2019-05-30T11:05:16.616Z,35.1
2019-05-30T11:06:16.891Z,35.0
2019-05-30T11:07:17.154Z,36.2
2019-05-30T11:08:16.418Z,35.1
2019-05-30T11:09:16.688Z,33.5
2019-05-30T11:10:16.955Z,35.4
2019-05-30T11:11:17.022Z,36.2
2019-05-30T11:12:16.319Z,33.7
2019-05-30T11:13:16.593Z,34.2
2019-05-30T11:14:16.867Z,34.2
2019-05-30T11:15:17.139Z,34.6
2019-05-30T11:16:16.413Z,32.2
2019-05-30T11:17:16.674Z,31.8
2019-05-30T11:18:16.936Z,32.8
2019-05-30T11:19:17.237Z,33.5
2019-05-30T11:20:16.534Z,36.1
2019-05-30T11:21:16.587Z,35.2
2019-05-30T11:22:16.855Z,35.8
2019-05-30T11:23:17.121Z,34.5
2019-05-30T11:24:16.397Z,37.9
2019-05-30T11:25:16.667Z,34.0
2019-05-30T11:26:16.927Z,34.7
2019-05-30T11:27:17.206Z,34.5
2019-05-30T11:28:16.478Z,35.6
2019-05-30T11:29:16.748Z,37.5
2019-05-30T11:30:17.035Z,37.0
2019-05-30T11:31:17.125Z,37.0
2019-05-30T11:32:16.402Z,36.5
2019-05-30T11:33:16.674Z,36.2
2019-05-30T11:34:16.942Z,35.6
2019-05-30T11:35:17.218Z,36.5
2019-05-30T11:36:16.617Z,35.9
2019-05-30T11:37:19.293Z,37.1
2019-05-30T11:38:16.655Z,36.8
2019-05-30T11:39:16.924Z,37.0
2019-05-30T11:40:17.192Z,35.9
2019-05-30T11:41:16.268Z,36.2
2019-05-30T11:42:16.528Z,34.9
2019-05-30T11:43:16.801Z,37.9
2019-05-30T11:44:17.082Z,37.6
2019-05-30T11:45:16.350Z,37.6
2019-05-30T11:46:16.619Z,38.0
2019-05-30T11:47:16.884Z,38.0
2019-05-30T11:48:17.153Z,37.9
2019-05-30T11:49:16.416Z,38.3
2019-05-30T11:50:16.702Z,39.0
2019-05-30T11:51:16.753Z,40.2
2019-05-30T11:52:17.022Z,39.2
2019-05-30T11:53:16.293Z,39.7
2019-05-30T11:54:16.572Z,39.9
2019-05-30T11:55:16.836Z,39.3
2019-05-30T11:56:17.106Z,37.9
2019-05-30T11:57:16.387Z,38.8
2019-05-30T11:58:20.033Z,39.3
2019-05-30T11:59:16.428Z,39.2
2019-05-30T12:00:16.703Z,38.9
2019-05-30T12:01:16.773Z,41.1
2019-05-30T12:02:17.063Z,40.3
2019-05-30T12:03:16.338Z,41.3
2019-05-30T12:04:16.617Z,41.0
2019-05-30T12:05:16.881Z,41.0
2019-05-30T12:06:17.151Z,40.5
2019-05-30T12:07:16.425Z,38.9
2019-05-30T12:08:16.697Z,39.8
2019-05-30T12:09:16.972Z,40.4
2019-05-30T12:10:17.238Z,41.3
2019-05-30T12:11:16.317Z,40.6
2019-05-30T12:12:16.589Z,41.0
2019-05-30T12:13:16.859Z,40.4
2019-05-30T12:14:17.148Z,40.0
2019-05-30T12:15:16.424Z,39.7
2019-05-30T12:16:16.708Z,39.8
2019-05-30T12:17:16.994Z,40.3
2019-05-30T12:18:16.270Z,40.1
2019-05-30T12:19:16.542Z,40.0
2019-05-30T12:20:16.827Z,40.0
2019-05-30T12:21:16.879Z,39.7
2019-05-30T12:22:17.166Z,39.6
2019-05-30T12:23:16.424Z,40.0
2019-05-30T12:24:16.685Z,40.5
2019-05-30T12:25:16.966Z,40.0
2019-05-30T12:26:17.257Z,41.2
2019-05-30T12:27:16.534Z,40.6
2019-05-30T12:28:16.805Z,40.6
2019-05-30T12:29:17.063Z,40.3
2019-05-30T12:30:16.364Z,40.9
2019-05-30T12:31:16.394Z,42.1
2019-05-30T12:32:16.670Z,42.2
2019-05-30T12:33:16.949Z,42.4
2019-05-30T12:34:17.218Z,40.9
2019-05-30T12:35:16.506Z,41.3
2019-05-30T12:36:16.774Z,41.9
2019-05-30T12:37:17.083Z,41.2
2019-05-30T12:38:16.365Z,40.5
2019-05-30T12:39:16.642Z,40.4
2019-05-30T12:40:16.942Z,40.4
2019-05-30T12:41:16.963Z,41.5
2019-05-30T12:42:17.252Z,41.1
2019-05-30T12:43:16.524Z,40.0
2019-05-30T12:44:16.789Z,41.3
2019-05-30T12:45:17.067Z,42.0
2019-05-30T12:46:16.335Z,41.9
2019-05-30T12:47:16.607Z,42.6
2019-05-30T12:48:17.114Z,41.5
2019-05-30T12:49:16.390Z,41.8
2019-05-30T12:50:17.027Z,41.7
2019-05-30T12:51:16.726Z,41.1
2019-05-30T12:52:16.996Z,41.0
2019-05-30T12:53:16.437Z,41.3
2019-05-30T12:54:16.729Z,41.9
2019-05-30T12:55:17.007Z,41.5
2019-05-30T12:56:16.271Z,41.5
2019-05-30T12:57:16.540Z,41.9
2019-05-30T12:58:16.822Z,41.4
2019-05-30T12:59:17.084Z,42.5
2019-05-30T13:00:19.286Z,41.6
2019-05-30T13:01:16.441Z,42.6
2019-05-30T13:02:16.713Z,42.8
2019-05-30T13:03:16.974Z,41.0
2019-05-30T13:04:17.232Z,41.0
2019-05-30T13:05:16.510Z,41.2
2019-05-30T13:06:16.789Z,42.0
2019-05-30T13:07:17.062Z,42.0
2019-05-30T13:08:22.131Z,42.0
2019-05-30T13:09:16.503Z,41.2
2019-05-30T13:10:16.777Z,40.9
2019-05-30T13:11:16.812Z,40.2
2019-05-30T13:12:17.082Z,41.8
2019-05-30T13:13:16.352Z,42.0
2019-05-30T13:14:16.619Z,41.4
2019-05-30T13:15:16.901Z,42.5
2019-05-30T13:16:17.161Z,43.8
2019-05-30T13:17:16.454Z,42.1
2019-05-30T13:18:16.746Z,42.0